createdAt,value
2018-09-01T03:01:05.389Z,8.20
2018-09-01T03:02:06.143Z,8.33
2018-09-01T03:03:05.984Z,8.20
2018-09-01T03:04:06.534Z,8.27
2018-09-01T03:05:08.011Z,8.33
2018-09-01T03:06:04.262Z,8.20
2018-09-01T03:07:04.226Z,8.31
2018-09-01T03:08:04.331Z,8.37
2018-09-01T03:09:04.489Z,8.34
2018-09-01T03:10:04.641Z,8.37
2018-09-01T03:11:04.777Z,8.36
2018-09-01T03:12:04.929Z,8.31
2018-09-01T03:13:05.137Z,8.34
2018-09-01T03:14:05.204Z,8.41
2018-09-01T03:15:05.464Z,8.33
2018-09-01T03:16:05.739Z,8.27
2018-09-01T03:17:05.757Z,8.30
2018-09-01T03:18:05.952Z,8.26
2018-09-01T03:19:06.105Z,8.15
2018-09-01T03:20:06.374Z,8.01
2018-09-01T03:21:06.517Z,8.03
2018-09-01T03:22:06.594Z,7.98
2018-09-01T03:23:06.927Z,7.95
2018-09-01T03:24:06.995Z,8.00
2018-09-01T03:25:07.125Z,8.05
2018-09-01T03:26:07.426Z,8.01
2018-09-01T03:27:07.455Z,8.06
2018-09-01T03:28:07.764Z,8.18
2018-09-01T03:29:07.756Z,8.18
2018-09-01T03:30:07.890Z,8.20
2018-09-01T03:31:08.022Z,8.16
2018-09-01T03:32:08.282Z,8.18
2018-09-01T03:33:08.359Z,8.15
2018-09-01T03:34:08.596Z,8.15
2018-09-01T03:35:08.776Z,8.13
2018-09-01T03:36:09.030Z,8.01
2018-09-01T03:37:09.248Z,7.97
2018-09-01T03:38:09.276Z,7.88
2018-09-01T03:39:09.573Z,7.85
2018-09-01T03:40:09.997Z,7.82
2018-09-01T03:41:10.025Z,7.76
2018-09-01T03:42:10.067Z,7.87
2018-09-01T03:43:10.343Z,7.82
2018-09-01T03:44:10.243Z,7.83
2018-09-01T03:45:10.577Z,7.98
2018-09-01T03:46:10.604Z,7.90
2018-09-01T03:47:10.843Z,7.87
2018-09-01T03:48:11.119Z,7.98
2018-09-01T03:49:11.199Z,7.94
2018-09-01T03:50:11.358Z,7.97
2018-09-01T03:51:11.522Z,7.94
2018-09-01T03:52:11.807Z,7.95
2018-09-01T03:53:11.874Z,8.00
2018-09-01T03:54:11.927Z,8.03
2018-09-01T03:55:12.106Z,8.00
2018-09-01T03:56:12.489Z,8.12
2018-09-01T03:57:12.551Z,8.10
2018-09-01T03:58:12.847Z,8.19
2018-09-01T03:59:12.936Z,8.06
2018-09-01T04:00:13.110Z,8.15
2018-09-01T04:01:13.487Z,8.16
2018-09-01T04:02:13.498Z,8.18
2018-09-01T04:03:13.562Z,8.28
2018-09-01T04:04:13.718Z,8.26
2018-09-01T04:05:13.921Z,8.27
2018-09-01T04:06:14.116Z,8.19
2018-09-01T04:07:14.152Z,8.19
2018-09-01T04:08:14.546Z,8.23
2018-09-01T04:09:14.671Z,8.16
2018-09-01T04:10:14.750Z,8.16
2018-09-01T04:11:15.612Z,8.19
2018-09-01T04:12:15.434Z,8.03
2018-09-01T04:13:15.218Z,8.08
2018-09-01T04:14:15.509Z,8.05
2018-09-01T04:15:15.796Z,7.95
2018-09-01T04:16:15.964Z,7.93
2018-09-01T04:17:16.189Z,7.88
2018-09-01T04:18:16.410Z,7.91
2018-09-01T04:19:16.319Z,7.77
2018-09-01T04:20:16.566Z,7.75
2018-09-01T04:21:16.717Z,7.70
2018-09-01T04:22:17.163Z,7.75
2018-09-01T04:23:17.287Z,7.69
2018-09-01T04:24:17.350Z,7.76
2018-09-01T04:25:17.412Z,7.63
2018-09-01T04:26:17.452Z,7.79
2018-09-01T04:27:17.654Z,7.70
2018-09-01T04:28:17.935Z,7.77
2018-09-01T04:29:18.049Z,7.75
2018-09-01T04:30:18.158Z,7.76
2018-09-01T04:31:18.344Z,7.76
2018-09-01T04:32:18.471Z,7.83
2018-09-01T04:33:18.735Z,7.70
2018-09-01T04:34:18.786Z,7.69
2018-09-01T04:35:19.107Z,7.75
2018-09-01T04:36:19.323Z,7.77
2018-09-01T04:37:19.383Z,7.60
2018-09-01T04:38:19.540Z,7.63
2018-09-01T04:39:19.605Z,7.66
2018-09-01T04:40:19.936Z,7.58
2018-09-01T04:41:20.096Z,7.61
2018-09-01T04:42:20.098Z,7.50
2018-09-01T04:43:20.465Z,7.54
2018-09-01T04:44:20.566Z,7.50
2018-09-01T04:45:20.788Z,7.54
2018-09-01T04:46:20.916Z,7.51
2018-09-01T04:47:21.069Z,7.51
2018-09-01T04:48:21.280Z,7.47
2018-09-01T04:49:21.425Z,7.39
2018-09-01T04:50:21.731Z,7.47
2018-09-01T04:51:22.680Z,7.48
2018-09-01T04:52:21.771Z,7.56
2018-09-01T04:53:22.102Z,7.58
2018-09-01T04:56:06.154Z,7.70
2018-09-01T04:57:06.533Z,7.66
2018-09-01T04:58:06.991Z,7.66
2018-09-01T04:59:08.157Z,7.67
2018-09-01T05:00:07.624Z,7.57
2018-09-01T05:01:04.957Z,7.51
2018-09-01T05:02:04.996Z,7.50
2018-09-01T05:03:05.127Z,7.50
2018-09-01T05:04:05.193Z,7.48
2018-09-01T05:05:05.656Z,7.50
2018-09-01T05:06:05.552Z,7.56
2018-09-01T05:07:05.840Z,7.58
2018-09-01T05:08:06.337Z,7.53
2018-09-01T05:09:06.038Z,7.57
2018-09-01T05:10:06.261Z,7.63
2018-09-01T05:11:06.342Z,7.54
2018-09-01T05:12:06.814Z,7.56
2018-09-01T05:13:06.624Z,7.51
2018-09-01T05:14:06.723Z,7.53
2018-09-01T05:15:06.979Z,7.43
2018-09-01T05:16:41.637Z,7.43
2018-09-01T05:17:10.086Z,7.54
2018-09-01T05:18:30.657Z,7.53
2018-09-01T05:19:07.948Z,7.42
2018-09-01T05:20:07.994Z,7.48
2018-09-01T05:21:08.060Z,7.47
2018-09-01T05:22:08.671Z,7.45
2018-09-01T05:27:41.194Z,7.40
2018-09-01T05:29:41.672Z,7.51
2018-09-01T05:30:41.979Z,7.53
2018-09-01T05:31:43.955Z,7.56
2018-09-01T05:33:42.684Z,7.69
2018-09-01T05:38:15.095Z,7.83
2018-09-01T05:39:18.712Z,7.87
2018-09-01T05:40:14.697Z,7.97
2018-09-01T05:41:15.563Z,7.87
2018-09-01T05:42:15.441Z,7.88
2018-09-01T05:43:15.486Z,7.94
2018-09-01T05:44:16.249Z,7.93
2018-09-01T05:45:14.677Z,7.82
2018-09-01T05:46:13.124Z,7.87
2018-09-01T05:47:13.240Z,7.80
2018-09-01T05:48:13.703Z,7.90
2018-09-01T05:51:58.216Z,7.93
2018-09-01T05:55:46.543Z,7.97
2018-09-01T06:04:11.856Z,8.42
2018-09-01T06:07:51.218Z,8.58
2018-09-01T06:12:27.317Z,8.73
2018-09-01T06:13:28.757Z,8.73
2018-09-01T06:14:28.006Z,8.66
2018-09-01T06:15:28.324Z,8.69
2018-09-01T06:16:27.730Z,8.74
2018-09-01T06:17:28.193Z,8.74
2018-09-01T06:18:26.032Z,8.78
2018-09-01T06:19:26.241Z,8.82
2018-09-01T06:20:26.394Z,8.84
2018-09-01T06:21:26.558Z,8.81
2018-09-01T06:22:26.751Z,8.91
2018-09-01T06:23:26.813Z,9.08
2018-09-01T06:24:26.967Z,9.18
2018-09-01T06:25:27.219Z,9.25
2018-09-01T06:26:27.270Z,9.29
2018-09-01T06:27:27.486Z,9.39
2018-09-01T06:28:27.813Z,9.25
2018-09-01T06:29:27.833Z,9.23
2018-09-01T06:30:28.084Z,9.46
2018-09-01T06:31:28.320Z,9.40
2018-09-01T06:32:28.375Z,9.46
2018-09-01T06:33:28.575Z,9.41
2018-09-01T06:34:28.895Z,9.50
2018-09-01T06:35:28.991Z,9.55
2018-09-01T06:36:29.062Z,9.58
2018-09-01T06:37:29.303Z,9.61
2018-09-01T06:38:29.394Z,9.58
2018-09-01T06:39:29.625Z,9.69
2018-09-01T06:40:29.729Z,9.76
2018-09-01T06:41:29.903Z,9.76
2018-09-01T06:42:30.120Z,9.94
2018-09-01T06:43:30.318Z,9.98
2018-09-01T06:44:30.389Z,10.12
2018-09-01T06:45:30.634Z,10.20
2018-09-01T06:46:30.844Z,10.28
2018-09-01T06:47:30.940Z,10.34
2018-09-01T06:48:31.100Z,10.46
2018-09-01T06:49:31.315Z,10.40
2018-09-01T06:50:31.508Z,10.38
2018-09-01T06:51:31.730Z,10.49
2018-09-01T06:52:31.790Z,10.44
2018-09-01T06:53:31.986Z,10.54
2018-09-01T06:54:32.131Z,10.40
2018-09-01T06:55:32.332Z,10.59
2018-09-01T06:56:32.514Z,10.59
2018-09-01T06:57:32.660Z,10.68
2018-09-01T06:58:32.843Z,10.75
2018-09-01T06:59:33.051Z,10.81
2018-09-01T07:00:33.155Z,10.94
2018-09-01T07:01:33.325Z,10.96
2018-09-01T07:02:33.481Z,10.90
2018-09-01T07:03:33.573Z,10.96
2018-09-01T07:04:33.824Z,10.96
2018-09-01T07:05:33.993Z,11.15
2018-09-01T07:06:34.122Z,11.15
2018-09-01T07:07:34.337Z,11.27
2018-09-01T07:08:34.500Z,11.40
2018-09-01T07:09:34.686Z,11.44
2018-09-01T07:10:34.914Z,11.57
2018-09-01T07:11:34.904Z,11.55
2018-09-01T07:12:35.166Z,11.60
2018-09-01T07:13:35.275Z,11.72
2018-09-01T07:14:35.423Z,11.68
2018-09-01T07:15:35.634Z,11.69
2018-09-01T07:16:35.824Z,11.86
2018-09-01T07:17:35.965Z,12.02
2018-09-01T07:18:36.206Z,12.13
2018-09-01T07:19:36.326Z,12.37
2018-09-01T07:20:36.444Z,12.47
2018-09-01T07:21:36.609Z,12.50
2018-09-01T07:22:36.799Z,12.65
2018-09-01T07:23:36.906Z,12.76
2018-09-01T07:24:37.095Z,12.85
2018-09-01T07:25:37.279Z,12.75
2018-09-01T07:26:37.389Z,12.85
2018-09-01T07:27:37.677Z,12.85
2018-09-01T07:28:37.787Z,12.97
2018-09-01T07:29:37.946Z,13.16
2018-09-01T07:30:38.176Z,13.56
2018-09-01T07:31:38.599Z,13.90
2018-09-01T07:32:38.465Z,14.32
2018-09-01T07:33:38.619Z,14.82
2018-09-01T07:34:38.772Z,15.19
2018-09-01T07:35:38.940Z,15.51
2018-09-01T07:36:39.211Z,15.95
2018-09-01T07:37:39.262Z,16.43
2018-09-01T07:38:39.492Z,16.81
2018-09-01T07:39:39.579Z,17.08
2018-09-01T07:40:39.765Z,17.09
2018-09-01T07:41:40.104Z,16.79
2018-09-01T07:42:40.128Z,16.53
2018-09-01T07:43:40.323Z,16.35
2018-09-01T07:44:40.437Z,16.10
2018-09-01T07:45:40.704Z,15.83
2018-09-01T07:46:40.880Z,15.55
2018-09-01T07:47:41.052Z,15.25
2018-09-01T07:48:41.178Z,15.09
2018-09-01T07:49:41.396Z,14.81
2018-09-01T07:50:41.604Z,14.78
2018-09-01T07:51:41.716Z,14.63
2018-09-01T07:52:41.924Z,14.88
2018-09-01T07:53:42.066Z,15.03
2018-09-01T07:54:42.220Z,15.06
2018-09-01T07:55:42.337Z,14.86
2018-09-01T07:56:42.497Z,14.58
2018-09-01T07:57:42.657Z,14.73
2018-09-01T07:58:42.880Z,15.04
2018-09-01T07:59:42.985Z,15.11
2018-09-01T08:00:43.201Z,15.02
2018-09-01T08:01:43.380Z,14.97
2018-09-01T08:02:43.452Z,15.11
2018-09-01T08:03:43.626Z,15.55
2018-09-01T08:04:43.769Z,16.08
2018-09-01T08:05:44.828Z,16.49
2018-09-01T08:06:44.237Z,16.76
2018-09-01T08:07:44.478Z,16.93
2018-09-01T08:08:44.516Z,17.23
2018-09-01T08:09:44.804Z,17.80
2018-09-01T08:10:44.991Z,18.34
2018-09-01T08:11:45.830Z,18.58
2018-09-01T08:12:45.284Z,18.81
2018-09-01T08:13:45.542Z,19.40
2018-09-01T08:14:45.625Z,19.41
2018-09-01T08:15:45.767Z,19.41
2018-09-01T08:16:46.031Z,19.52
2018-09-01T08:17:46.120Z,19.99
2018-09-01T08:18:46.253Z,20.29
2018-09-01T08:19:46.448Z,20.40
2018-09-01T08:20:46.609Z,20.50
2018-09-01T08:21:46.832Z,20.92
2018-09-01T08:22:46.933Z,21.15
2018-09-01T08:23:47.112Z,21.52
2018-09-01T08:24:47.196Z,21.66
2018-09-01T08:25:47.461Z,21.83
2018-09-01T08:26:47.634Z,21.73
2018-09-01T08:27:47.790Z,22.06
2018-09-01T08:28:47.939Z,22.32
2018-09-01T08:29:48.182Z,22.29
2018-09-01T08:30:48.257Z,22.60
2018-09-01T08:31:48.519Z,22.62
2018-09-01T08:32:48.653Z,22.99
2018-09-01T08:33:48.908Z,23.15
2018-09-01T08:34:49.044Z,23.25
2018-09-01T08:35:49.210Z,23.34
2018-09-01T08:36:49.423Z,23.06
2018-09-01T08:37:49.424Z,23.23
2018-09-01T08:38:49.736Z,23.54
2018-09-01T08:39:49.806Z,23.68
2018-09-01T08:40:50.005Z,23.73
2018-09-01T08:41:50.236Z,23.83
2018-09-01T08:42:50.324Z,23.77
2018-09-01T08:43:50.521Z,24.03
2018-09-01T08:44:50.675Z,23.98
2018-09-01T08:45:50.814Z,23.99
2018-09-01T08:46:50.927Z,24.10
2018-09-01T08:47:51.107Z,23.86
2018-09-01T08:48:51.301Z,24.03
2018-09-01T08:49:51.479Z,24.51
2018-09-01T08:50:51.714Z,24.65
2018-09-01T08:51:51.897Z,24.66
2018-09-01T08:52:52.178Z,24.65
2018-09-01T08:53:52.219Z,24.77
2018-09-01T08:54:52.344Z,24.76
2018-09-01T08:55:52.554Z,24.98
2018-09-01T08:56:52.669Z,24.32
2018-09-01T08:57:52.900Z,24.42
2018-09-01T08:58:53.004Z,24.84
2018-09-01T08:59:53.221Z,24.91
2018-09-01T09:00:53.416Z,25.18
2018-09-01T09:01:53.559Z,25.35
2018-09-01T09:02:53.698Z,25.60
2018-09-01T09:03:53.963Z,25.98
2018-09-01T09:04:54.102Z,26.22
2018-09-01T09:05:54.281Z,26.25
2018-09-01T09:06:54.372Z,26.59
2018-09-01T09:07:54.539Z,26.92
2018-09-01T09:08:54.687Z,27.25
2018-09-01T09:09:54.864Z,27.29
2018-09-01T09:10:55.037Z,27.14
2018-09-01T09:11:55.357Z,27.54
2018-09-01T09:12:55.497Z,27.67
2018-09-01T09:13:55.659Z,27.80
2018-09-01T09:14:55.817Z,27.49
2018-09-01T09:15:56.061Z,26.95
2018-09-01T09:16:56.212Z,26.97
2018-09-01T09:17:56.303Z,27.05
2018-09-01T09:18:56.468Z,27.40
2018-09-01T09:19:56.668Z,27.58
2018-09-01T09:20:56.868Z,27.65
2018-09-01T09:21:56.984Z,27.42
2018-09-01T09:22:57.205Z,27.70
2018-09-01T09:23:57.416Z,27.73
2018-09-01T09:24:57.616Z,27.60
2018-09-01T09:25:57.744Z,27.25
2018-09-01T09:26:57.884Z,26.89
2018-09-01T09:27:58.128Z,26.85
2018-09-01T09:28:58.275Z,27.03
2018-09-01T09:29:58.454Z,27.00
2018-09-01T09:30:58.654Z,26.89
2018-09-01T09:31:58.810Z,26.90
2018-09-01T09:32:58.906Z,26.85
2018-09-01T09:33:59.220Z,26.23
2018-09-01T09:34:59.275Z,26.63
2018-09-01T09:35:59.490Z,26.95
2018-09-01T09:36:59.647Z,27.17
2018-09-01T09:37:59.823Z,27.33
2018-09-01T09:39:00.010Z,27.42
2018-09-01T09:40:00.138Z,26.88
2018-09-01T09:41:00.328Z,27.20
2018-09-01T09:42:00.624Z,27.37
2018-09-01T09:43:00.673Z,27.49
2018-09-01T09:44:00.805Z,27.18
2018-09-01T09:45:00.979Z,26.51
2018-09-01T09:46:01.198Z,25.65
2018-09-01T09:47:01.341Z,25.41
2018-09-01T09:48:02.351Z,25.77
2018-09-01T09:49:01.745Z,26.02
2018-09-01T09:50:01.900Z,26.52
2018-09-01T09:51:02.150Z,26.89
2018-09-01T09:52:02.257Z,26.90
2018-09-01T09:53:02.387Z,26.95
2018-09-01T09:54:02.510Z,26.95
2018-09-01T09:55:02.695Z,26.90
2018-09-01T09:56:02.948Z,27.08
2018-09-01T09:57:03.111Z,27.35
2018-09-01T09:58:03.228Z,27.78
2018-09-01T09:59:03.378Z,28.19
2018-09-01T10:00:03.610Z,28.37
2018-09-01T10:01:03.812Z,28.79
2018-09-01T10:02:03.941Z,28.35
2018-09-01T10:03:04.124Z,27.18
2018-09-01T10:04:04.285Z,26.37
2018-09-01T10:05:04.534Z,25.96
2018-09-01T10:06:04.701Z,25.28
2018-09-01T10:07:04.770Z,24.61
2018-09-01T10:08:04.953Z,24.05
2018-09-01T10:09:05.193Z,24.40
2018-09-01T10:10:05.418Z,24.38
2018-09-01T10:11:05.638Z,24.18
2018-09-01T10:12:05.716Z,23.78
2018-09-01T10:13:05.844Z,23.34
2018-09-01T10:14:06.032Z,23.08
2018-09-01T10:15:06.213Z,22.72
2018-09-01T10:16:06.367Z,22.55
2018-09-01T10:17:06.595Z,22.51
2018-09-01T10:18:06.784Z,22.63
2018-09-01T10:19:06.958Z,23.83
2018-09-01T10:20:07.223Z,24.42
2018-09-01T10:21:07.403Z,24.18
2018-09-01T10:22:07.585Z,23.87
2018-09-01T10:23:07.680Z,23.61
2018-09-01T10:24:07.816Z,23.23
2018-09-01T10:25:08.106Z,22.98
2018-09-01T10:26:08.250Z,22.90
2018-09-01T10:27:08.488Z,23.68
2018-09-01T10:28:08.605Z,24.81
2018-09-01T10:29:08.854Z,25.66
2018-09-01T10:30:09.030Z,26.25
2018-09-01T10:31:09.239Z,26.70
2018-09-01T10:32:09.343Z,27.17
2018-09-01T10:33:09.561Z,27.25
2018-09-01T10:34:09.710Z,27.67
2018-09-01T10:35:09.844Z,28.38
2018-09-01T10:36:09.994Z,28.97
2018-09-01T10:37:10.181Z,28.93
2018-09-01T10:38:10.361Z,29.13
2018-09-01T10:39:10.562Z,28.93
2018-09-01T10:40:10.738Z,28.23
2018-09-01T10:41:10.925Z,28.00
2018-09-01T10:42:11.129Z,27.03
2018-09-01T10:43:11.244Z,26.23
2018-09-01T10:44:11.405Z,25.65
2018-09-01T10:45:11.670Z,25.08
2018-09-01T10:46:11.802Z,24.69
2018-09-01T10:47:11.962Z,24.33
2018-09-01T10:48:12.191Z,24.18
2018-09-01T10:49:12.231Z,23.88
2018-09-01T10:50:12.493Z,23.69
2018-09-01T10:51:12.634Z,23.48
2018-09-01T10:52:12.810Z,23.61
2018-09-01T10:53:12.964Z,24.51
2018-09-01T10:54:13.078Z,25.63
2018-09-01T10:55:13.361Z,26.52
2018-09-01T10:56:13.438Z,27.39
2018-09-01T10:57:13.640Z,28.26
2018-09-01T10:58:13.808Z,28.91
2018-09-01T10:59:14.059Z,28.76
2018-09-01T11:00:14.172Z,29.10
2018-09-01T11:01:14.403Z,29.38
2018-09-01T11:02:14.524Z,29.71
2018-09-01T11:03:14.669Z,30.25
2018-09-01T11:04:14.835Z,30.43
2018-09-01T11:05:15.097Z,30.78
2018-09-01T11:06:15.162Z,30.72
2018-09-01T11:07:15.318Z,30.54
2018-09-01T11:08:15.556Z,30.10
2018-09-01T11:09:15.744Z,30.18
2018-09-01T11:10:15.943Z,30.68
2018-09-01T11:11:16.157Z,30.75
2018-09-01T11:12:16.237Z,30.97
2018-09-01T11:13:16.419Z,31.20
2018-09-01T11:14:16.731Z,31.40
2018-09-01T11:15:16.805Z,30.85
2018-09-01T11:16:17.031Z,30.77
2018-09-01T11:17:17.182Z,30.81
2018-09-01T11:18:17.385Z,30.72
2018-09-01T11:19:17.451Z,30.87
2018-09-01T11:20:17.692Z,31.05
2018-09-01T11:21:17.782Z,31.12
2018-09-01T11:22:18.024Z,31.59
2018-09-01T11:23:18.238Z,31.66
2018-09-01T11:24:18.402Z,31.89
2018-09-01T11:25:18.577Z,31.58
2018-09-01T11:26:18.761Z,32.04
2018-09-01T11:27:18.897Z,32.12
2018-09-01T11:28:19.024Z,32.29
2018-09-01T11:29:19.268Z,31.90
2018-09-01T11:30:19.516Z,31.65
2018-09-01T11:31:19.614Z,31.78
2018-09-01T11:32:19.859Z,31.51
2018-09-01T11:33:19.949Z,31.36
2018-09-01T11:34:20.201Z,31.34
2018-09-01T11:35:20.382Z,31.17
2018-09-01T11:36:20.464Z,31.29
2018-09-01T11:37:20.765Z,31.54
2018-09-01T11:38:20.925Z,32.03
2018-09-01T11:39:21.060Z,32.15
2018-09-01T11:40:21.246Z,32.60
2018-09-01T11:41:21.406Z,32.74
2018-09-01T11:42:21.703Z,31.73
2018-09-01T11:43:21.874Z,32.18
2018-09-01T11:44:21.958Z,32.55
2018-09-01T11:45:22.177Z,32.51
2018-09-01T11:46:22.363Z,32.59
2018-09-01T11:47:22.497Z,32.31
2018-09-01T11:48:22.705Z,32.53
2018-09-01T11:49:22.823Z,32.30
2018-09-01T11:50:23.051Z,32.08
2018-09-01T11:51:23.256Z,31.56
2018-09-01T11:52:23.507Z,31.34
2018-09-01T11:53:23.708Z,31.70
2018-09-01T11:54:23.713Z,31.78
2018-09-01T11:55:23.924Z,31.99
2018-09-01T11:56:24.156Z,31.99
2018-09-01T11:57:24.289Z,32.26
2018-09-01T11:58:24.508Z,32.30
2018-09-01T11:59:24.674Z,32.14
2018-09-01T12:00:24.832Z,32.01
2018-09-01T12:01:25.000Z,31.92
2018-09-01T12:02:25.264Z,31.74
2018-09-01T12:03:25.406Z,31.78
2018-09-01T12:04:25.590Z,32.51
2018-09-01T12:05:25.719Z,32.80
2018-09-01T12:06:25.919Z,32.33
2018-09-01T12:07:26.185Z,32.67
2018-09-01T12:08:26.322Z,33.02
2018-09-01T12:09:26.578Z,31.69
2018-09-01T12:10:26.713Z,30.68
2018-09-01T12:11:26.850Z,30.51
2018-09-01T12:12:27.131Z,30.80
2018-09-01T12:13:27.250Z,30.88
2018-09-01T12:14:27.422Z,31.09
2018-09-01T12:15:27.581Z,31.51
2018-09-01T12:16:27.826Z,32.03
2018-09-01T12:17:28.452Z,32.37
2018-09-01T12:18:28.191Z,32.55
2018-09-01T12:19:28.332Z,32.49
2018-09-01T12:20:28.464Z,32.38
2018-09-01T12:21:28.700Z,32.52
2018-09-01T12:22:28.852Z,32.48
2018-09-01T12:23:29.082Z,33.00
2018-09-01T12:24:29.265Z,33.32
2018-09-01T12:25:29.437Z,33.77
2018-09-01T12:26:29.636Z,34.14
2018-09-01T12:27:29.744Z,33.68
2018-09-01T12:28:29.978Z,33.37
2018-09-01T12:29:30.111Z,33.81
2018-09-01T12:30:30.306Z,33.57
2018-09-01T12:31:30.558Z,33.68
2018-09-01T12:32:30.835Z,33.65
2018-09-01T12:33:30.854Z,33.90
2018-09-01T12:34:31.038Z,33.96
2018-09-01T12:35:31.385Z,33.84
2018-09-01T12:36:31.544Z,33.49
2018-09-01T12:37:31.688Z,33.74
2018-09-01T12:38:31.842Z,33.47
2018-09-01T12:39:32.020Z,33.50
2018-09-01T12:40:32.184Z,33.45
2018-09-01T12:41:32.420Z,33.67
2018-09-01T12:42:32.540Z,33.57
2018-09-01T12:43:32.743Z,33.53
2018-09-01T12:44:32.911Z,33.24
2018-09-01T12:45:33.110Z,33.27
2018-09-01T12:46:33.243Z,33.52
2018-09-01T12:47:33.489Z,33.80
2018-09-01T12:48:33.587Z,33.81
2018-09-01T12:49:33.822Z,33.47
2018-09-01T12:50:33.966Z,34.05
2018-09-01T12:51:34.198Z,34.18
2018-09-01T12:52:34.328Z,33.40
2018-09-01T12:53:34.623Z,33.11
2018-09-01T12:54:34.808Z,33.67
2018-09-01T12:55:34.906Z,33.95
2018-09-01T12:56:35.082Z,34.14
2018-09-01T12:57:35.231Z,34.18
2018-09-01T12:58:35.440Z,33.96
2018-09-01T12:59:35.576Z,34.01
2018-09-01T13:00:35.783Z,34.36
2018-09-01T13:01:35.945Z,34.14
2018-09-01T13:02:36.129Z,34.32
2018-09-01T13:03:36.261Z,33.95
2018-09-01T13:04:36.466Z,33.46
2018-09-01T13:05:36.725Z,33.43
2018-09-01T13:06:36.902Z,33.77
2018-09-01T13:07:37.065Z,33.98
2018-09-01T13:08:37.206Z,33.46
2018-09-01T13:09:37.466Z,33.95
2018-09-01T13:10:37.587Z,34.36
2018-09-01T13:11:37.821Z,33.83
2018-09-01T13:12:38.136Z,33.86
2018-09-01T13:13:38.251Z,33.65
2018-09-01T13:14:38.366Z,33.87
2018-09-01T13:15:38.567Z,33.46
2018-09-01T13:16:38.725Z,33.57
2018-09-01T13:17:38.860Z,33.77
2018-09-01T13:18:39.069Z,33.80
2018-09-01T13:19:39.312Z,33.32
2018-09-01T13:20:39.397Z,33.14
2018-09-01T13:21:39.685Z,32.83
2018-09-01T13:22:39.823Z,33.14
2018-09-01T13:23:39.986Z,33.47
2018-09-01T13:24:40.217Z,33.47
2018-09-01T13:25:40.325Z,33.39
2018-09-01T13:26:40.605Z,33.73
2018-09-01T13:27:40.751Z,33.92
2018-09-01T13:28:40.931Z,33.87
2018-09-01T13:29:41.060Z,33.98
2018-09-01T13:30:41.319Z,34.16
2018-09-01T13:31:41.512Z,34.14
2018-09-01T13:32:41.599Z,34.50
2018-09-01T13:33:41.820Z,34.92
2018-09-01T13:34:41.981Z,34.75
2018-09-01T13:35:42.183Z,34.45
2018-09-01T13:36:42.417Z,33.90
2018-09-01T13:37:42.562Z,33.92
2018-09-01T13:38:42.711Z,34.14
2018-09-01T13:39:42.933Z,34.27
2018-09-01T13:40:43.055Z,34.93
2018-09-01T13:41:43.329Z,35.58
2018-09-01T13:42:43.434Z,35.83
2018-09-01T13:43:43.610Z,35.26
2018-09-01T13:44:43.910Z,35.45
2018-09-01T13:45:44.013Z,34.77
2018-09-01T13:46:44.208Z,33.98
2018-09-01T13:47:44.308Z,33.62
2018-09-01T13:48:44.520Z,33.77
2018-09-01T13:49:44.689Z,33.50
2018-09-01T13:50:44.922Z,33.55
2018-09-01T13:51:45.035Z,33.67
2018-09-01T13:52:45.237Z,33.83
2018-09-01T13:53:45.380Z,34.39
2018-09-01T13:54:45.577Z,34.39
2018-09-01T13:55:45.730Z,34.42
2018-09-01T13:56:45.907Z,33.73
2018-09-01T13:57:46.125Z,33.89
2018-09-01T13:58:46.221Z,33.84
2018-09-01T13:59:46.482Z,33.95
2018-09-01T14:00:46.634Z,33.95
2018-09-01T14:01:46.775Z,34.27
2018-09-01T14:02:47.073Z,34.45
2018-09-01T14:03:47.236Z,34.17
2018-09-01T14:04:47.459Z,34.14
2018-09-01T14:05:47.615Z,34.30
2018-09-01T14:06:47.737Z,34.33
2018-09-01T14:07:47.951Z,34.45
2018-09-01T14:08:48.067Z,33.64
2018-09-01T14:09:48.276Z,33.80
2018-09-01T14:10:48.558Z,34.10
2018-09-01T14:11:48.689Z,34.05
2018-09-01T14:12:48.948Z,33.96
2018-09-01T14:13:49.060Z,33.99
2018-09-01T14:14:49.418Z,33.96
2018-09-01T14:15:49.423Z,33.37
2018-09-01T14:16:49.607Z,33.42
2018-09-01T14:17:49.782Z,33.07
2018-09-01T14:18:49.989Z,33.43
2018-09-01T14:19:50.218Z,33.28
2018-09-01T14:20:50.386Z,33.65
2018-09-01T14:21:50.564Z,33.79
2018-09-01T14:22:50.740Z,33.95
2018-09-01T14:23:50.893Z,34.10
2018-09-01T14:24:51.115Z,33.95
2018-09-01T14:25:51.241Z,33.81
2018-09-01T14:26:51.436Z,33.79
2018-09-01T14:27:51.569Z,33.71
2018-09-01T14:28:51.855Z,33.58
2018-09-01T14:29:52.065Z,33.74
2018-09-01T14:30:52.183Z,33.58
2018-09-01T14:31:52.353Z,33.31
2018-09-01T14:32:52.565Z,32.92
2018-09-01T14:33:52.724Z,33.17
2018-09-01T14:34:52.891Z,32.87
2018-09-01T14:35:53.090Z,33.02
2018-09-01T14:36:53.249Z,32.82
2018-09-01T14:37:53.478Z,32.71
2018-09-01T14:38:53.655Z,32.36
2018-09-01T14:39:53.895Z,32.33
2018-09-01T14:40:54.036Z,32.49
2018-09-01T14:41:54.295Z,32.03
2018-09-01T14:42:54.438Z,32.53
2018-09-01T14:43:54.691Z,32.74
2018-09-01T14:44:54.804Z,32.77
2018-09-01T14:45:55.035Z,33.01
2018-09-01T14:46:55.165Z,32.82
2018-09-01T14:47:55.418Z,32.96
2018-09-01T14:48:55.569Z,32.93
2018-09-01T14:49:55.775Z,33.12
2018-09-01T14:50:55.929Z,32.75
2018-09-01T14:51:56.149Z,32.56
2018-09-01T14:52:56.327Z,32.58
2018-09-01T14:53:56.539Z,32.77
2018-09-01T14:54:56.715Z,32.80
2018-09-01T14:55:56.817Z,33.17
2018-09-01T14:56:57.075Z,33.57
2018-09-01T14:57:57.322Z,33.08
2018-09-01T14:58:57.479Z,32.77
2018-09-01T14:59:57.655Z,32.70
2018-09-01T15:00:57.803Z,32.29
2018-09-01T15:01:58.870Z,32.43
2018-09-01T15:02:58.099Z,32.59
2018-09-01T15:03:58.296Z,32.52
2018-09-01T15:04:58.560Z,32.58
2018-09-01T15:05:58.713Z,32.75
2018-09-01T15:06:58.951Z,32.40
2018-09-01T15:07:59.037Z,32.60
2018-09-01T15:08:59.254Z,33.05
2018-09-01T15:09:59.399Z,33.15
2018-09-01T15:10:59.593Z,33.31
2018-09-01T15:11:59.819Z,32.87
2018-09-01T15:13:00.034Z,32.95
2018-09-01T15:14:00.215Z,33.02
2018-09-01T15:15:00.342Z,32.89
2018-09-01T15:16:00.451Z,32.87
2018-09-01T15:17:00.679Z,32.85
2018-09-01T15:18:00.824Z,32.95
2018-09-01T15:19:01.070Z,32.93
2018-09-01T15:20:01.472Z,33.05
2018-09-01T15:21:01.421Z,33.23
2018-09-01T15:22:01.677Z,32.73
2018-09-01T15:23:01.845Z,32.30
2018-09-01T15:24:02.243Z,31.99
2018-09-01T15:25:02.122Z,30.94
2018-09-01T15:26:02.306Z,30.08
2018-09-01T15:27:02.485Z,29.54
2018-09-01T15:28:02.665Z,28.89
2018-09-01T15:29:02.830Z,28.37
2018-09-01T15:30:02.983Z,27.85
2018-09-01T15:31:03.157Z,27.51
2018-09-01T15:32:03.365Z,27.25
2018-09-01T15:33:03.624Z,27.25
2018-09-01T15:34:03.710Z,27.51
2018-09-01T15:35:03.865Z,28.22
2018-09-01T15:36:04.085Z,28.63
2018-09-01T15:37:04.281Z,28.97
2018-09-01T15:38:04.490Z,29.35
2018-09-01T15:39:04.691Z,29.75
2018-09-01T15:40:04.795Z,30.06
2018-09-01T15:41:05.024Z,30.12
2018-09-01T15:42:05.229Z,30.34
2018-09-01T15:43:05.387Z,30.55
2018-09-01T15:44:05.596Z,30.28
2018-09-01T15:45:05.745Z,30.68
2018-09-01T15:46:05.961Z,30.65
2018-09-01T15:47:06.015Z,30.84
2018-09-01T15:48:06.324Z,30.88
2018-09-01T15:49:06.410Z,30.75
2018-09-01T15:50:06.610Z,31.09
2018-09-01T15:51:06.811Z,30.99
2018-09-01T15:52:06.952Z,30.69
2018-09-01T15:53:07.128Z,30.35
2018-09-01T15:54:07.393Z,29.90
2018-09-01T15:55:07.502Z,29.05
2018-09-01T15:56:07.671Z,28.41
2018-09-01T15:57:07.905Z,27.70
2018-09-01T15:58:08.034Z,27.30
2018-09-01T15:59:08.210Z,26.83
2018-09-01T16:00:08.406Z,26.41
2018-09-01T16:01:08.569Z,26.00
2018-09-01T16:02:09.390Z,25.66
2018-09-01T16:03:08.964Z,25.46
2018-09-01T16:04:09.081Z,25.55
2018-09-01T16:05:09.321Z,25.53
2018-09-01T16:06:09.506Z,25.55
2018-09-01T16:07:09.662Z,25.58
2018-09-01T16:08:09.852Z,25.58
2018-09-01T16:09:10.028Z,25.54
2018-09-01T16:10:10.155Z,25.59
2018-09-01T16:11:10.369Z,25.53
2018-09-01T16:12:10.537Z,25.68
2018-09-01T16:13:10.701Z,25.66
2018-09-01T16:14:10.914Z,25.65
2018-09-01T16:15:11.156Z,25.60
2018-09-01T16:16:11.322Z,25.48
2018-09-01T16:17:11.429Z,25.58
2018-09-01T16:18:11.596Z,25.53
2018-09-01T16:19:11.768Z,25.33
2018-09-01T16:20:11.908Z,25.14
2018-09-01T16:21:12.125Z,25.01
2018-09-01T16:22:12.381Z,24.88
2018-09-01T16:23:12.545Z,24.70
2018-09-01T16:24:12.698Z,24.57
2018-09-01T16:25:12.875Z,24.68
2018-09-01T16:26:13.048Z,24.60
2018-09-01T16:27:13.230Z,24.57
2018-09-01T16:28:13.329Z,24.47
2018-09-01T16:29:13.557Z,24.36
2018-09-01T16:30:13.647Z,24.33
2018-09-01T16:31:13.910Z,24.11
2018-09-01T16:32:14.069Z,23.95